createdAt,value
2019-03-18T00:01:44.653Z,4.00
2019-03-18T00:04:16.159Z,4.00
2019-03-18T00:06:47.463Z,4.00
2019-03-18T00:09:18.710Z,4.00
2019-03-18T00:11:50.256Z,4.00
2019-03-18T00:14:22.126Z,4.00
2019-03-18T00:16:53.804Z,3.90
2019-03-18T00:19:25.891Z,4.00
2019-03-18T00:21:58.987Z,3.90
2019-03-18T00:24:30.891Z,3.90
2019-03-18T00:27:02.458Z,3.90
2019-03-18T00:29:34.113Z,3.90
2019-03-18T00:32:06.057Z,3.90
2019-03-18T00:34:37.656Z,4.00
2019-03-18T00:37:09.267Z,3.90
2019-03-18T00:39:41.312Z,3.90
2019-03-18T00:42:12.633Z,3.90
2019-03-18T00:44:44.273Z,3.90
2019-03-18T00:47:16.162Z,3.80
2019-03-18T00:49:48.925Z,3.80
2019-03-18T00:52:20.164Z,3.90
2019-03-18T00:54:52.050Z,3.90
2019-03-18T00:57:23.323Z,3.90
2019-03-18T00:59:54.583Z,3.90
2019-03-18T01:02:26.535Z,3.90
2019-03-18T01:04:58.667Z,3.90
2019-03-18T01:07:30.504Z,3.90
2019-03-18T01:10:02.427Z,3.90
2019-03-18T01:12:34.544Z,3.90
2019-03-18T01:15:06.769Z,3.80
2019-03-18T01:17:39.235Z,3.70
2019-03-18T01:20:11.280Z,3.70
2019-03-18T01:22:42.953Z,3.70
2019-03-18T01:25:14.645Z,3.70
2019-03-18T01:27:46.786Z,3.70
2019-03-18T01:30:19.825Z,3.70
2019-03-18T01:32:51.105Z,3.70
2019-03-18T01:35:22.385Z,3.70
2019-03-18T01:37:54.314Z,3.80
2019-03-18T01:40:26.341Z,3.80
2019-03-18T01:42:57.675Z,3.70
2019-03-18T01:45:40.139Z,3.70
2019-03-18T01:48:02.361Z,3.70
2019-03-18T01:50:34.388Z,3.60
2019-03-18T01:53:06.425Z,3.70
2019-03-18T01:55:37.929Z,3.70
2019-03-18T01:58:09.221Z,3.70
2019-03-18T02:00:41.660Z,3.60
2019-03-18T02:03:13.314Z,3.70
2019-03-18T02:05:45.215Z,3.70
2019-03-18T02:08:16.211Z,3.70
2019-03-18T02:10:48.078Z,3.70
2019-03-18T02:13:19.634Z,3.70
2019-03-18T02:15:53.700Z,3.70
2019-03-18T02:18:24.676Z,3.70
2019-03-18T02:20:56.229Z,3.70
2019-03-18T02:23:28.300Z,3.70
2019-03-18T02:25:59.576Z,3.70
2019-03-18T02:28:31.068Z,3.70
2019-03-18T02:31:02.887Z,3.70
2019-03-18T02:33:34.493Z,3.70
2019-03-18T02:36:06.400Z,3.70
2019-03-18T02:38:38.385Z,3.70
2019-03-18T02:41:09.380Z,3.70
2019-03-18T02:43:40.908Z,3.70
2019-03-18T02:46:12.484Z,3.70
2019-03-18T02:48:43.977Z,3.70
2019-03-18T02:51:15.286Z,3.70
2019-03-18T02:53:46.809Z,3.70
2019-03-18T02:56:18.296Z,3.70
2019-03-18T02:58:50.155Z,3.80
2019-03-18T03:01:21.757Z,3.80
2019-03-18T03:03:52.733Z,3.80
2019-03-18T03:06:23.820Z,3.70
2019-03-18T03:08:55.142Z,3.70
2019-03-18T03:11:26.986Z,3.70
2019-03-18T03:13:58.683Z,3.70
2019-03-18T03:16:30.016Z,3.70
2019-03-18T03:19:01.665Z,3.70
2019-03-18T03:21:33.313Z,3.70
2019-03-18T03:24:04.874Z,3.70
2019-03-18T03:26:36.727Z,3.70
2019-03-18T03:29:08.341Z,3.70
2019-03-18T03:31:39.989Z,3.70
2019-03-18T03:34:13.792Z,3.70
2019-03-18T03:36:44.548Z,3.70
2019-03-18T03:39:16.134Z,3.70
2019-03-18T03:41:47.675Z,3.60
2019-03-18T03:44:19.450Z,3.60
2019-03-18T03:46:50.772Z,3.70
2019-03-18T03:49:22.644Z,3.70
2019-03-18T03:51:54.446Z,3.70
2019-03-18T03:54:26.338Z,3.60
2019-03-18T03:56:58.668Z,3.60
2019-03-18T03:59:30.175Z,3.60
2019-03-18T04:02:02.255Z,3.60
2019-03-18T04:04:33.724Z,3.60
2019-03-18T04:07:05.297Z,3.60
2019-03-18T04:09:36.405Z,3.60
2019-03-18T04:12:07.921Z,3.60
2019-03-18T04:14:39.222Z,3.60
2019-03-18T04:17:10.745Z,3.60
2019-03-18T04:19:42.308Z,3.60
2019-03-18T04:22:13.953Z,3.60
2019-03-18T04:24:45.487Z,3.60
2019-03-18T04:27:16.769Z,3.60
2019-03-18T04:29:48.719Z,3.60
2019-03-18T04:32:20.032Z,3.50
2019-03-18T04:34:52.084Z,3.50
2019-03-18T04:37:23.957Z,3.50
2019-03-18T04:39:55.539Z,3.50
2019-03-18T04:42:26.848Z,3.50
2019-03-18T04:44:58.639Z,3.60
2019-03-18T04:47:30.570Z,3.60
2019-03-18T04:50:02.636Z,3.50
2019-03-18T04:52:33.910Z,3.50
2019-03-18T04:55:06.859Z,3.50
2019-03-18T04:57:38.606Z,3.50
2019-03-18T05:00:10.651Z,3.50
2019-03-18T05:02:41.623Z,3.50
2019-03-18T05:05:12.737Z,3.50
2019-03-18T05:07:44.084Z,3.40
2019-03-18T05:10:15.924Z,3.40
2019-03-18T05:12:47.562Z,3.40
2019-03-18T05:15:19.327Z,3.40
2019-03-18T05:17:50.960Z,3.40
2019-03-18T05:20:22.803Z,3.40
2019-03-18T05:22:54.550Z,3.40
2019-03-18T05:25:26.288Z,3.40
2019-03-18T05:27:57.299Z,3.40
2019-03-18T05:30:28.709Z,3.40
2019-03-18T05:33:00.034Z,3.30
2019-03-18T05:35:31.843Z,3.30
2019-03-18T05:38:02.824Z,3.30
2019-03-18T05:40:34.402Z,3.20
2019-03-18T05:43:05.382Z,3.30
2019-03-18T05:45:37.185Z,3.40
2019-03-18T05:48:08.785Z,3.70
2019-03-18T05:50:40.288Z,4.00
2019-03-18T05:53:12.396Z,4.10
2019-03-18T05:55:44.174Z,4.20
2019-03-18T05:58:15.393Z,4.30
2019-03-18T06:00:47.169Z,4.10
2019-03-18T06:03:18.488Z,3.90
2019-03-18T06:05:50.164Z,3.80
2019-03-18T06:08:21.815Z,3.70
2019-03-18T06:10:53.344Z,3.60
2019-03-18T06:13:24.974Z,3.60
2019-03-18T06:15:56.729Z,3.60
2019-03-18T06:18:28.285Z,3.60
2019-03-18T06:20:59.985Z,3.60
2019-03-18T06:23:31.875Z,3.70
2019-03-18T06:26:03.196Z,3.80
2019-03-18T06:28:34.668Z,3.90
2019-03-18T06:31:05.939Z,4.00
2019-03-18T06:33:38.017Z,4.10
2019-03-18T06:36:10.040Z,4.20
2019-03-18T06:38:41.674Z,4.30
2019-03-18T06:41:13.176Z,4.30
2019-03-18T06:43:45.089Z,4.40
2019-03-18T06:46:16.643Z,4.50
2019-03-18T06:48:48.123Z,4.60
2019-03-18T06:51:19.752Z,4.60
2019-03-18T06:53:51.059Z,4.60
2019-03-18T06:56:23.210Z,4.60
2019-03-18T06:58:54.860Z,4.70
2019-03-18T07:01:26.131Z,4.80
2019-03-18T07:03:57.369Z,5.00
2019-03-18T07:06:29.162Z,5.30
2019-03-18T07:09:00.961Z,5.80
2019-03-18T07:11:34.510Z,6.30
2019-03-18T07:14:06.356Z,6.90
2019-03-18T07:16:37.686Z,7.30
2019-03-18T07:19:08.764Z,7.80
2019-03-18T07:21:40.309Z,8.30
2019-03-18T07:24:11.864Z,8.80
2019-03-18T07:26:43.164Z,9.10
2019-03-18T07:29:15.033Z,9.20
2019-03-18T07:31:46.318Z,9.10
2019-03-18T07:34:17.849Z,9.20
2019-03-18T07:36:49.825Z,9.60
2019-03-18T07:39:21.149Z,10.00
2019-03-18T07:41:53.051Z,10.60
2019-03-18T07:44:24.615Z,10.90
2019-03-18T07:46:55.921Z,10.70
2019-03-18T07:49:26.983Z,11.10
2019-03-18T07:51:58.459Z,11.10
2019-03-18T07:54:33.078Z,10.80
2019-03-18T07:57:03.499Z,10.20
2019-03-18T07:59:35.025Z,9.60
2019-03-18T08:02:06.750Z,9.10
2019-03-18T08:04:38.403Z,9.10
2019-03-18T08:07:09.679Z,9.00
2019-03-18T08:09:41.341Z,8.80
2019-03-18T08:12:13.121Z,8.60
2019-03-18T08:14:44.674Z,8.70
2019-03-18T08:17:16.716Z,8.80
2019-03-18T08:19:48.593Z,9.10
2019-03-18T08:22:20.202Z,9.40
2019-03-18T08:24:52.454Z,9.40
2019-03-18T08:27:24.000Z,9.40
2019-03-18T08:29:55.245Z,9.70
2019-03-18T08:32:27.068Z,10.40
2019-03-18T08:34:59.377Z,11.00
2019-03-18T08:37:30.673Z,11.80
2019-03-18T08:40:02.554Z,12.30
2019-03-18T08:42:34.503Z,12.30
2019-03-18T08:45:06.515Z,11.60
2019-03-18T08:47:38.403Z,11.00
2019-03-18T08:50:12.227Z,10.60
2019-03-18T08:52:43.781Z,10.50
2019-03-18T08:55:15.651Z,10.80
2019-03-18T08:57:47.559Z,11.60
2019-03-18T09:00:18.838Z,12.20
2019-03-18T09:02:50.720Z,12.00
2019-03-18T09:05:22.350Z,11.30
2019-03-18T09:07:54.138Z,10.70
2019-03-18T09:10:25.778Z,10.00
2019-03-18T09:12:57.935Z,9.40
2019-03-18T09:15:29.498Z,9.20
2019-03-18T09:18:01.225Z,8.90
2019-03-18T09:20:32.792Z,9.00
2019-03-18T09:23:05.388Z,9.20
2019-03-18T09:25:36.932Z,9.30
2019-03-18T09:28:08.242Z,9.20
2019-03-18T09:30:39.888Z,9.20
2019-03-18T09:33:11.469Z,9.30
2019-03-18T09:35:43.556Z,9.70
2019-03-18T09:38:15.404Z,10.20
2019-03-18T09:40:46.959Z,10.70
2019-03-18T09:43:18.786Z,10.90
2019-03-18T09:45:50.810Z,10.80
2019-03-18T09:48:22.101Z,10.40
2019-03-18T09:50:53.662Z,9.90
2019-03-18T09:53:25.529Z,9.40
2019-03-18T09:55:57.713Z,9.50
2019-03-18T09:58:29.541Z,9.70
2019-03-18T10:01:01.105Z,10.00
2019-03-18T10:03:32.353Z,10.10
2019-03-18T10:06:03.409Z,10.20
2019-03-18T10:08:36.182Z,10.70
2019-03-18T10:11:08.021Z,11.40
2019-03-18T10:13:39.932Z,11.80
2019-03-18T10:16:11.739Z,12.10
2019-03-18T10:18:43.002Z,12.40
2019-03-18T10:21:14.864Z,12.70
2019-03-18T10:23:46.417Z,12.60
2019-03-18T10:26:20.327Z,12.20
2019-03-18T10:28:51.295Z,11.80
2019-03-18T10:31:23.108Z,11.50
2019-03-18T10:33:54.694Z,11.30
2019-03-18T10:36:26.534Z,11.50
2019-03-18T10:38:58.153Z,11.70
2019-03-18T10:41:30.052Z,11.60
2019-03-18T10:44:01.383Z,11.40
2019-03-18T10:46:33.577Z,11.60
2019-03-18T10:49:05.150Z,11.60
2019-03-18T10:51:36.790Z,11.00
2019-03-18T10:54:09.432Z,10.40
2019-03-18T10:56:41.418Z,10.00
2019-03-18T10:59:12.917Z,9.90
2019-03-18T11:01:44.738Z,10.00
2019-03-18T11:04:16.772Z,10.10
2019-03-18T11:06:48.573Z,10.40
2019-03-18T11:09:19.567Z,10.90
2019-03-18T11:11:51.438Z,11.10
2019-03-18T11:14:24.224Z,11.40
2019-03-18T11:16:55.873Z,11.40
2019-03-18T11:19:28.053Z,11.50
2019-03-18T11:21:59.902Z,11.40
2019-03-18T11:24:31.738Z,11.20
2019-03-18T11:27:03.024Z,10.70
2019-03-18T11:29:34.009Z,10.20
2019-03-18T11:32:05.772Z,10.10
2019-03-18T11:34:37.355Z,9.90
2019-03-18T11:37:08.976Z,9.80
2019-03-18T11:39:40.544Z,9.70
2019-03-18T11:42:12.735Z,9.50
2019-03-18T11:44:43.917Z,9.60
2019-03-18T11:47:15.729Z,9.50
2019-03-18T11:49:47.611Z,9.50
2019-03-18T11:52:19.342Z,9.30
2019-03-18T11:54:50.634Z,9.30
2019-03-18T11:57:22.297Z,9.40
2019-03-18T11:59:54.311Z,9.50
2019-03-18T12:02:27.937Z,9.70
2019-03-18T12:04:58.657Z,9.50
2019-03-18T12:07:30.372Z,9.30
2019-03-18T12:10:01.639Z,9.30
2019-03-18T12:12:32.916Z,9.40
2019-03-18T12:15:04.568Z,9.50
2019-03-18T12:17:36.196Z,9.60
2019-03-18T12:20:08.487Z,9.50
2019-03-18T12:22:39.707Z,9.40
2019-03-18T12:25:11.431Z,9.30
2019-03-18T12:27:44.097Z,9.20
2019-03-18T12:30:17.623Z,9.20
2019-03-18T12:32:49.408Z,9.30
2019-03-18T12:35:21.374Z,9.30
2019-03-18T12:37:53.070Z,9.60
2019-03-18T12:40:24.930Z,9.80
2019-03-18T12:42:56.237Z,10.00
2019-03-18T12:45:27.878Z,10.10
2019-03-18T12:47:59.702Z,10.30
2019-03-18T12:50:43.457Z,10.40
2019-03-18T12:53:04.508Z,10.40
2019-03-18T12:55:35.837Z,10.00
2019-03-18T12:58:07.127Z,9.60
2019-03-18T13:00:38.160Z,9.30
2019-03-18T13:03:09.530Z,9.20
2019-03-18T13:05:41.658Z,9.10
2019-03-18T13:08:13.597Z,9.00
2019-03-18T13:10:45.132Z,8.90
2019-03-18T13:13:16.925Z,8.70
2019-03-18T13:15:48.476Z,8.40
2019-03-18T13:18:20.279Z,8.30
2019-03-18T13:20:52.177Z,8.40
2019-03-18T13:23:24.200Z,8.50
2019-03-18T13:25:55.978Z,8.60
2019-03-18T13:28:27.968Z,8.70
2019-03-18T13:31:00.131Z,8.80
2019-03-18T13:33:31.343Z,8.90
2019-03-18T13:36:03.581Z,8.90
2019-03-18T13:38:35.142Z,8.90
2019-03-18T13:41:06.846Z,8.90
2019-03-18T13:43:38.471Z,9.00
2019-03-18T13:46:10.191Z,9.20
2019-03-18T13:48:42.018Z,9.20
2019-03-18T13:51:20.951Z,9.20
2019-03-18T13:53:47.816Z,9.30
2019-03-18T13:56:20.823Z,9.50
2019-03-18T13:58:52.616Z,9.60
2019-03-18T14:01:23.878Z,9.50
2019-03-18T14:03:56.268Z,9.30
2019-03-18T14:06:27.901Z,9.10
2019-03-18T14:08:59.147Z,8.90
2019-03-18T14:11:30.690Z,8.80
2019-03-18T14:14:01.687Z,8.60
2019-03-18T14:16:32.995Z,8.50
2019-03-18T14:19:04.830Z,8.50
2019-03-18T14:21:37.117Z,8.60
2019-03-18T14:24:08.766Z,8.70
2019-03-18T14:26:40.594Z,8.80
2019-03-18T14:29:12.336Z,8.90
2019-03-18T14:31:44.218Z,8.90
2019-03-18T14:34:15.543Z,9.00
2019-03-18T14:36:47.627Z,9.20
2019-03-18T14:39:19.616Z,9.50
2019-03-18T14:41:50.603Z,9.70
2019-03-18T14:44:22.418Z,9.70
2019-03-18T14:46:54.078Z,9.40
2019-03-18T14:49:25.818Z,9.30
2019-03-18T14:51:57.376Z,9.20
2019-03-18T14:54:29.394Z,9.20
2019-03-18T14:57:01.207Z,9.10
2019-03-18T14:59:32.497Z,9.00
2019-03-18T15:02:03.784Z,8.90
2019-03-18T15:04:35.571Z,8.90
2019-03-18T15:07:07.216Z,8.80
2019-03-18T15:09:38.535Z,8.80
2019-03-18T15:12:10.031Z,8.80
2019-03-18T15:14:41.380Z,8.80
2019-03-18T15:17:12.979Z,8.80
2019-03-18T15:19:44.063Z,8.80
2019-03-18T15:22:15.690Z,8.70
2019-03-18T15:24:47.260Z,8.80
2019-03-18T15:27:19.004Z,8.80
2019-03-18T15:29:50.868Z,8.80
2019-03-18T15:32:22.738Z,8.70
2019-03-18T15:34:54.280Z,8.70
2019-03-18T15:37:25.614Z,8.50
2019-03-18T15:39:56.838Z,8.40
2019-03-18T15:42:28.115Z,8.40
2019-03-18T15:45:02.691Z,8.40
2019-03-18T15:47:34.097Z,8.40
2019-03-18T15:50:06.468Z,8.40
2019-03-18T15:52:37.781Z,8.30
2019-03-18T15:55:10.084Z,8.10
2019-03-18T15:57:41.596Z,8.00
2019-03-18T16:00:15.875Z,7.90
2019-03-18T16:02:47.910Z,7.80
2019-03-18T16:05:19.311Z,7.70
2019-03-18T16:07:50.984Z,7.60
2019-03-18T16:10:22.356Z,7.50
2019-03-18T16:12:54.189Z,7.40
2019-03-18T16:15:26.072Z,7.40
2019-03-18T16:17:57.964Z,7.50
2019-03-18T16:20:29.702Z,7.50
2019-03-18T16:23:01.258Z,7.50
2019-03-18T16:25:32.820Z,7.40
2019-03-18T16:28:03.882Z,7.30
2019-03-18T16:30:42.028Z,7.20
2019-03-18T16:33:14.314Z,7.10
2019-03-18T16:35:46.199Z,7.00
2019-03-18T16:38:17.835Z,6.90
2019-03-18T16:40:50.614Z,6.80
2019-03-18T16:43:22.239Z,6.80
2019-03-18T16:45:53.516Z,6.70
2019-03-18T16:48:24.490Z,6.60
2019-03-18T16:50:55.999Z,6.60
2019-03-18T16:53:27.874Z,6.50
2019-03-18T16:55:59.204Z,6.50
2019-03-18T16:58:30.947Z,6.40
2019-03-18T17:01:02.784Z,6.40
2019-03-18T17:03:34.912Z,6.30
2019-03-18T17:06:06.440Z,6.30
2019-03-18T17:08:38.286Z,6.20
2019-03-18T17:11:09.839Z,6.20
2019-03-18T17:13:41.155Z,6.20
2019-03-18T17:16:12.694Z,6.20
2019-03-18T17:18:44.530Z,6.10
2019-03-18T17:21:16.132Z,6.10
2019-03-18T17:23:48.229Z,6.00
2019-03-18T17:26:19.827Z,5.90
2019-03-18T17:28:52.215Z,5.90
2019-03-18T17:31:24.325Z,5.90
2019-03-18T17:33:55.875Z,5.90
2019-03-18T17:36:27.396Z,5.90
2019-03-18T17:38:59.176Z,5.80
2019-03-18T17:41:30.794Z,5.80
2019-03-18T17:44:02.359Z,5.80
2019-03-18T17:46:33.348Z,5.70
2019-03-18T17:49:05.139Z,5.70
2019-03-18T17:51:37.945Z,5.70
2019-03-18T17:54:09.454Z,5.70
2019-03-18T17:56:40.964Z,5.70
2019-03-18T17:59:12.816Z,5.80
2019-03-18T18:01:45.104Z,5.80
2019-03-18T18:04:16.667Z,5.80
2019-03-18T18:06:48.581Z,5.80
2019-03-18T18:09:20.409Z,5.80
2019-03-18T18:11:52.166Z,5.80
2019-03-18T18:14:23.971Z,5.70
2019-03-18T18:16:55.334Z,5.70
2019-03-18T18:19:26.911Z,5.70
2019-03-18T18:21:59.230Z,5.60
2019-03-18T18:24:30.984Z,5.60
2019-03-18T18:27:03.191Z,5.60
2019-03-18T18:29:35.068Z,5.60
2019-03-18T18:32:06.563Z,5.60
2019-03-18T18:34:38.221Z,5.70
2019-03-18T18:37:10.093Z,5.70
2019-03-18T18:39:42.036Z,5.70
2019-03-18T18:42:13.758Z,5.70
2019-03-18T18:44:45.349Z,5.60
2019-03-18T18:47:16.938Z,5.70
2019-03-18T18:49:49.297Z,5.70
2019-03-18T18:52:21.139Z,5.70
2019-03-18T18:54:53.096Z,5.70
2019-03-18T18:57:24.712Z,5.70
2019-03-18T18:59:56.508Z,5.60
2019-03-18T19:02:28.021Z,5.60
2019-03-18T19:04:59.291Z,5.60
2019-03-18T19:07:30.507Z,5.60
2019-03-18T19:10:02.064Z,5.70
2019-03-18T19:12:33.546Z,5.80
2019-03-18T19:15:07.402Z,5.70
2019-03-18T19:17:38.908Z,5.50
2019-03-18T19:20:11.250Z,5.30
2019-03-18T19:22:42.455Z,5.10
2019-03-18T19:25:14.192Z,5.00
2019-03-18T19:27:46.097Z,4.90
2019-03-18T19:30:19.033Z,4.70
2019-03-18T19:32:50.694Z,4.70
2019-03-18T19:35:22.792Z,4.60
2019-03-18T19:37:54.648Z,4.60
2019-03-18T19:40:25.938Z,4.60
2019-03-18T19:42:57.714Z,4.50
2019-03-18T19:45:29.258Z,4.50
2019-03-18T19:48:01.084Z,4.50
2019-03-18T19:50:32.367Z,4.40
2019-03-18T19:53:04.092Z,4.40
2019-03-18T19:55:35.967Z,4.40
2019-03-18T19:58:07.225Z,4.40
2019-03-18T20:00:39.226Z,4.40
2019-03-18T20:03:10.840Z,4.50
2019-03-18T20:05:42.395Z,4.50
2019-03-18T20:08:14.029Z,4.50
2019-03-18T20:10:45.606Z,4.50
2019-03-18T20:13:17.182Z,4.50
2019-03-18T20:15:48.986Z,4.50
2019-03-18T20:18:21.023Z,4.40
2019-03-18T20:20:52.237Z,4.50
2019-03-18T20:23:24.198Z,4.50
2019-03-18T20:25:56.123Z,4.50
2019-03-18T20:28:27.396Z,4.50
2019-03-18T20:30:59.022Z,4.50
2019-03-18T20:33:30.870Z,4.50
2019-03-18T20:36:02.636Z,4.40
2019-03-18T20:38:34.219Z,4.40
2019-03-18T20:41:05.448Z,4.40
2019-03-18T20:43:37.087Z,4.40
2019-03-18T20:46:08.781Z,4.40
2019-03-18T20:48:40.623Z,4.50
2019-03-18T20:51:12.293Z,4.50
2019-03-18T20:53:43.837Z,4.40
2019-03-18T20:56:15.497Z,4.40
2019-03-18T20:58:47.594Z,4.40
2019-03-18T21:01:19.418Z,4.40
2019-03-18T21:03:51.500Z,4.40
2019-03-18T21:06:24.543Z,4.50
2019-03-18T21:08:55.798Z,4.50
2019-03-18T21:11:27.780Z,4.50
2019-03-18T21:13:59.431Z,4.50
2019-03-18T21:16:30.451Z,4.40
2019-03-18T21:19:01.930Z,4.40
2019-03-18T21:21:33.949Z,4.40
2019-03-18T21:24:05.405Z,4.40
2019-03-18T21:26:37.370Z,4.40
2019-03-18T21:29:09.702Z,4.50
2019-03-18T21:31:41.356Z,4.40
2019-03-18T21:34:13.400Z,4.50
2019-03-18T21:36:46.392Z,4.50
2019-03-18T21:39:18.148Z,4.50
2019-03-18T21:41:50.135Z,4.40
2019-03-18T21:44:21.956Z,4.50
2019-03-18T21:46:53.794Z,4.50
2019-03-18T21:49:25.704Z,4.50
2019-03-18T21:51:56.987Z,4.60
2019-03-18T21:54:34.040Z,4.70
2019-03-18T21:57:02.059Z,4.70
2019-03-18T21:59:33.926Z,4.70
2019-03-18T22:02:05.567Z,4.70
2019-03-18T22:04:37.841Z,4.80
2019-03-18T22:07:09.176Z,4.80
2019-03-18T22:09:41.093Z,4.90
2019-03-18T22:12:12.618Z,4.90
2019-03-18T22:14:44.170Z,4.80
2019-03-18T22:17:15.467Z,4.80
2019-03-18T22:19:46.959Z,4.80
2019-03-18T22:22:18.820Z,4.80
2019-03-18T22:24:50.438Z,4.70
2019-03-18T22:27:23.266Z,4.60
2019-03-18T22:29:55.084Z,4.60
2019-03-18T22:32:26.843Z,4.60
2019-03-18T22:34:58.247Z,4.60
2019-03-18T22:37:30.045Z,4.50
2019-03-18T22:40:01.529Z,4.50
2019-03-18T22:42:32.838Z,4.40
2019-03-18T22:45:04.559Z,4.40
2019-03-18T22:47:36.410Z,4.30
2019-03-18T22:50:08.867Z,4.30
2019-03-18T22:52:40.945Z,4.20
2019-03-18T22:55:12.018Z,4.20
2019-03-18T22:57:43.740Z,4.20
2019-03-18T23:00:33.816Z,4.20
2019-03-18T23:03:06.224Z,4.30
2019-03-18T23:05:38.042Z,4.40
2019-03-18T23:08:09.546Z,4.40
2019-03-18T23:10:41.645Z,4.40
2019-03-18T23:13:13.698Z,4.40
2019-03-18T23:15:46.624Z,4.40
2019-03-18T23:18:19.555Z,4.40
2019-03-18T23:20:50.764Z,4.40
2019-03-18T23:23:22.619Z,4.40
2019-03-18T23:25:53.839Z,4.30
2019-03-18T23:28:25.392Z,4.30
2019-03-18T23:30:57.459Z,4.20
2019-03-18T23:33:29.503Z,4.20
2019-03-18T23:36:01.277Z,4.20
2019-03-18T23:38:32.747Z,4.10
2019-03-18T23:41:04.110Z,4.00
2019-03-18T23:43:35.655Z,4.00
2019-03-18T23:46:07.436Z,3.90
2019-03-18T23:48:39.178Z,3.90
2019-03-18T23:51:10.748Z,3.90
2019-03-18T23:53:42.245Z,3.80
2019-03-18T23:56:13.541Z,3.90
2019-03-18T23:58:45.317Z,3.90
